createdAt,value
2018-12-19T00:01:35.152Z,76.20
2018-12-19T00:04:03.549Z,76.30
2018-12-19T00:06:31.364Z,76.50
2018-12-19T00:09:03.150Z,76.70
2018-12-19T00:11:29.356Z,76.70
2018-12-19T00:13:57.650Z,76.80
2018-12-19T00:16:25.108Z,76.60
2018-12-19T00:18:52.597Z,76.00
2018-12-19T00:21:20.754Z,76.90
2018-12-19T00:23:49.090Z,76.40
2018-12-19T00:26:16.571Z,76.60
2018-12-19T00:28:45.112Z,76.30
2018-12-19T00:31:13.372Z,76.60
2018-12-19T00:33:41.159Z,76.60
2018-12-19T00:36:09.212Z,76.70
2018-12-19T00:38:37.188Z,76.40
2018-12-19T00:41:04.648Z,76.00
2018-12-19T00:43:32.106Z,76.20
2018-12-19T00:45:59.656Z,75.80
2018-12-19T00:48:27.497Z,75.50
2018-12-19T00:50:55.265Z,76.00
2018-12-19T00:53:23.511Z,75.80
2018-12-19T00:55:51.010Z,76.00
2018-12-19T00:58:19.148Z,76.30
2018-12-19T01:00:46.913Z,76.30
2018-12-19T01:03:15.200Z,76.10
2018-12-19T01:05:42.791Z,76.20
2018-12-19T01:08:10.657Z,75.90
2018-12-19T01:10:38.297Z,76.20
2018-12-19T01:13:05.794Z,76.10
2018-12-19T01:15:33.929Z,76.10
2018-12-19T01:18:01.426Z,75.90
2018-12-19T01:20:29.777Z,76.00
2018-12-19T01:22:58.068Z,76.70
2018-12-19T01:25:26.209Z,76.10
2018-12-19T01:27:54.213Z,76.00
2018-12-19T01:30:22.597Z,76.30
2018-12-19T01:32:50.975Z,76.00
2018-12-19T01:35:18.492Z,76.10
2018-12-19T01:37:45.981Z,76.20
2018-12-19T01:40:14.036Z,75.80
2018-12-19T01:42:41.497Z,75.80
2018-12-19T01:45:08.972Z,75.50
2018-12-19T01:47:37.564Z,75.30
2018-12-19T01:50:05.449Z,75.50
2018-12-19T01:52:32.945Z,75.50
2018-12-19T01:55:01.385Z,75.40
2018-12-19T01:57:28.848Z,75.10
2018-12-19T01:59:56.316Z,75.40
2018-12-19T02:02:24.557Z,75.10
2018-12-19T02:04:52.156Z,75.20
2018-12-19T02:07:20.241Z,74.80
2018-12-19T02:09:48.569Z,74.80
2018-12-19T02:12:16.057Z,75.10
2018-12-19T02:14:44.001Z,74.80
2018-12-19T02:17:11.946Z,74.60
2018-12-19T02:19:41.316Z,74.60
2018-12-19T02:22:09.616Z,73.50
2018-12-19T02:24:38.935Z,73.70
2018-12-19T02:27:07.218Z,73.80
2018-12-19T02:29:35.225Z,74.20
2018-12-19T02:32:08.284Z,73.40
2018-12-19T02:34:36.393Z,74.00
2018-12-19T02:37:04.647Z,73.90
2018-12-19T02:39:36.112Z,74.00
2018-12-19T02:42:01.652Z,73.90
2018-12-19T02:44:29.384Z,73.60
2018-12-19T02:46:56.852Z,73.80
2018-12-19T02:49:24.821Z,74.00
2018-12-19T02:51:52.857Z,73.50
2018-12-19T02:54:21.363Z,73.70
2018-12-19T02:56:48.846Z,73.70
2018-12-19T02:59:16.919Z,73.50
2018-12-19T03:01:44.433Z,73.40
2018-12-19T03:04:12.789Z,73.60
2018-12-19T03:06:40.822Z,73.70
2018-12-19T03:09:08.555Z,73.80
2018-12-19T03:11:36.061Z,74.00
2018-12-19T03:14:04.494Z,74.20
2018-12-19T03:16:33.068Z,74.20
2018-12-19T03:19:00.622Z,74.50
2018-12-19T03:21:28.793Z,74.40
2018-12-19T03:23:56.750Z,74.50
2018-12-19T03:26:24.346Z,74.60
2018-12-19T03:28:52.409Z,74.30
2018-12-19T03:31:21.714Z,74.60
2018-12-19T03:33:50.297Z,74.80
2018-12-19T03:36:17.905Z,74.80
2018-12-19T03:38:45.397Z,74.80
2018-12-19T03:41:13.086Z,74.60
2018-12-19T03:43:40.582Z,74.70
2018-12-19T03:46:08.235Z,74.80
2018-12-19T03:48:44.307Z,74.70
2018-12-19T03:51:11.839Z,74.70
2018-12-19T03:53:39.346Z,74.70
2018-12-19T03:56:07.382Z,74.60
2018-12-19T03:58:34.849Z,74.50
2018-12-19T04:01:02.386Z,74.50
2018-12-19T04:03:30.362Z,74.70
2018-12-19T04:05:59.222Z,74.50
2018-12-19T04:08:26.785Z,74.00
2018-12-19T04:10:54.251Z,74.50
2018-12-19T04:13:22.750Z,74.50
2018-12-19T04:15:51.069Z,74.30
2018-12-19T04:18:18.540Z,74.30
2018-12-19T04:20:47.121Z,74.90
2018-12-19T04:23:15.021Z,74.60
2018-12-19T04:25:42.497Z,74.50
2018-12-19T04:28:10.404Z,74.40
2018-12-19T04:30:40.130Z,74.10
2018-12-19T04:33:08.104Z,74.50
2018-12-19T04:35:37.547Z,74.50
2018-12-19T04:38:05.022Z,74.20
2018-12-19T04:40:32.984Z,74.40
2018-12-19T04:43:00.506Z,74.20
2018-12-19T04:45:27.969Z,74.30
2018-12-19T04:47:56.068Z,74.60
2018-12-19T04:50:23.579Z,74.40
2018-12-19T04:52:52.225Z,74.60
2018-12-19T04:55:20.026Z,74.20
2018-12-19T04:57:48.369Z,74.20
2018-12-19T05:00:15.841Z,74.20
2018-12-19T05:02:43.989Z,74.10
2018-12-19T05:05:11.593Z,73.80
2018-12-19T05:07:39.172Z,73.90
2018-12-19T05:10:12.252Z,73.80
2018-12-19T05:12:38.049Z,73.80
2018-12-19T05:15:06.017Z,73.70
2018-12-19T05:17:33.503Z,74.00
2018-12-19T05:20:02.095Z,73.80
2018-12-19T05:22:30.373Z,74.00
2018-12-19T05:24:57.914Z,73.80
2018-12-19T05:27:25.857Z,73.80
2018-12-19T05:29:53.714Z,73.70
2018-12-19T05:32:22.163Z,73.40
2018-12-19T05:34:50.229Z,73.60
2018-12-19T05:37:17.714Z,73.70
2018-12-19T05:39:45.674Z,73.90
2018-12-19T05:42:14.050Z,73.90
2018-12-19T05:44:41.878Z,73.90
2018-12-19T05:47:10.596Z,73.90
2018-12-19T05:49:38.706Z,73.70
2018-12-19T05:52:06.966Z,73.40
2018-12-19T05:54:34.453Z,73.20
2018-12-19T05:57:02.203Z,73.10
2018-12-19T05:59:29.762Z,72.70
2018-12-19T06:01:58.453Z,73.20
2018-12-19T06:04:26.402Z,73.20
2018-12-19T06:06:53.874Z,71.90
2018-12-19T06:09:22.709Z,72.30
2018-12-19T06:11:50.285Z,72.60
2018-12-19T06:14:18.433Z,72.50
2018-12-19T06:16:45.930Z,72.60
2018-12-19T06:19:13.431Z,72.70
2018-12-19T06:21:41.757Z,76.50
2018-12-19T06:24:09.346Z,82.70
2018-12-19T06:26:37.589Z,77.60
2018-12-19T06:29:05.765Z,74.40
2018-12-19T06:31:33.932Z,74.90
2018-12-19T06:34:01.454Z,74.70
2018-12-19T06:36:29.661Z,77.00
2018-12-19T06:38:57.725Z,75.30
2018-12-19T06:41:26.548Z,75.30
2018-12-19T06:43:54.828Z,75.10
2018-12-19T06:46:22.821Z,74.90
2018-12-19T06:48:51.379Z,75.20
2018-12-19T06:51:19.051Z,74.60
2018-12-19T06:53:46.681Z,75.10
2018-12-19T06:56:15.105Z,74.40
2018-12-19T06:58:43.580Z,74.80
2018-12-19T07:01:11.065Z,74.70
2018-12-19T07:03:38.519Z,74.30
2018-12-19T07:06:06.897Z,74.30
2018-12-19T07:08:34.389Z,74.80
2018-12-19T07:11:01.925Z,74.60
2018-12-19T07:13:30.257Z,74.10
2018-12-19T07:15:58.690Z,74.00
2018-12-19T07:18:26.161Z,74.60
2018-12-19T07:20:54.649Z,75.00
2018-12-19T07:23:22.116Z,73.90
2018-12-19T07:25:49.602Z,74.20
2018-12-19T07:28:17.855Z,74.20
2018-12-19T07:30:45.332Z,74.10
2018-12-19T07:33:13.332Z,74.10
2018-12-19T07:35:40.789Z,74.30
2018-12-19T07:38:08.269Z,74.10
2018-12-19T07:40:35.973Z,74.40
2018-12-19T07:43:04.255Z,74.20
2018-12-19T07:45:33.195Z,74.20
2018-12-19T07:48:01.435Z,73.80
2018-12-19T07:50:29.147Z,73.70
2018-12-19T07:52:56.740Z,73.60
2018-12-19T07:55:24.465Z,73.70
2018-12-19T07:57:51.953Z,73.00
2018-12-19T08:00:19.692Z,74.10
2018-12-19T08:02:48.105Z,73.00
2018-12-19T08:05:16.349Z,72.80
2018-12-19T08:07:43.816Z,72.50
2018-12-19T08:10:11.862Z,72.60
2018-12-19T08:12:40.407Z,72.80
2018-12-19T08:15:08.740Z,73.20
2018-12-19T08:17:36.213Z,73.10
2018-12-19T08:20:05.227Z,72.50
2018-12-19T08:22:32.786Z,72.80
2018-12-19T08:25:00.616Z,73.20
2018-12-19T08:27:28.552Z,73.30
2018-12-19T08:29:56.562Z,73.40
2018-12-19T08:32:25.450Z,73.30
2018-12-19T08:34:52.980Z,73.10
2018-12-19T08:37:20.452Z,74.00
2018-12-19T08:39:47.972Z,73.60
2018-12-19T08:42:15.443Z,73.60
2018-12-19T08:44:44.732Z,74.10
2018-12-19T08:47:12.800Z,72.50
2018-12-19T08:49:41.065Z,73.40
2018-12-19T08:52:09.068Z,73.60
2018-12-19T08:54:36.524Z,72.80
2018-12-19T08:57:04.295Z,72.20
2018-12-19T08:59:32.460Z,72.80
2018-12-19T09:02:00.444Z,71.90
2018-12-19T09:04:27.913Z,71.80
2018-12-19T09:06:55.487Z,73.50
2018-12-19T09:09:23.129Z,72.30
2018-12-19T09:11:50.598Z,72.00
2018-12-19T09:14:18.806Z,71.50
2018-12-19T09:16:46.283Z,70.80
2018-12-19T09:19:13.775Z,71.00
2018-12-19T09:21:41.884Z,71.00
2018-12-19T09:24:09.350Z,70.10
2018-12-19T09:26:36.833Z,70.80
2018-12-19T09:29:05.092Z,70.50
2018-12-19T09:31:33.252Z,70.00
2018-12-19T09:34:00.715Z,70.30
2018-12-19T09:36:28.271Z,69.30
2018-12-19T09:38:55.792Z,69.50
2018-12-19T09:41:24.024Z,69.10
2018-12-19T09:43:53.134Z,68.50
2018-12-19T09:46:20.674Z,68.00
2018-12-19T09:48:48.881Z,67.70
2018-12-19T09:51:16.358Z,68.00
2018-12-19T09:53:43.834Z,67.50
2018-12-19T09:56:11.443Z,67.80
2018-12-19T09:58:39.648Z,67.60
2018-12-19T10:01:08.327Z,67.20
2018-12-19T10:03:35.861Z,66.90
2018-12-19T10:06:03.463Z,67.10
2018-12-19T10:08:31.098Z,66.70
2018-12-19T10:10:58.591Z,67.20
2018-12-19T10:13:27.182Z,66.70
2018-12-19T10:15:55.673Z,66.90
2018-12-19T10:18:23.146Z,66.40
2018-12-19T10:20:51.211Z,66.90
2018-12-19T10:23:18.683Z,66.80
2018-12-19T10:25:50.718Z,67.40
2018-12-19T10:28:24.854Z,66.20
2018-12-19T10:30:53.139Z,67.00
2018-12-19T10:33:20.593Z,66.40
2018-12-19T10:35:48.154Z,66.70
2018-12-19T10:38:15.626Z,66.70
2018-12-19T10:40:43.906Z,66.20
2018-12-19T10:43:11.527Z,66.30
2018-12-19T10:45:39.004Z,66.80
2018-12-19T10:48:07.241Z,66.50
2018-12-19T10:50:35.452Z,65.80
2018-12-19T10:53:03.606Z,66.20
2018-12-19T10:55:31.260Z,65.70
2018-12-19T10:57:59.338Z,65.90
2018-12-19T11:00:33.156Z,66.10
2018-12-19T11:03:01.393Z,65.60
2018-12-19T11:05:29.575Z,66.10
2018-12-19T11:07:57.042Z,65.20
2018-12-19T11:10:24.614Z,64.70
2018-12-19T11:12:52.372Z,65.60
2018-12-19T11:15:20.760Z,64.40
2018-12-19T11:17:48.233Z,64.50
2018-12-19T11:20:16.438Z,64.90
2018-12-19T11:22:43.887Z,64.30
2018-12-19T11:25:12.042Z,63.60
2018-12-19T11:27:40.218Z,64.10
2018-12-19T11:30:09.241Z,64.40
2018-12-19T11:32:36.836Z,64.00
2018-12-19T11:35:05.680Z,64.00
2018-12-19T11:37:33.727Z,64.90
2018-12-19T11:40:01.276Z,64.20
2018-12-19T11:42:28.755Z,63.60
2018-12-19T11:44:56.914Z,64.70
2018-12-19T11:47:26.056Z,64.30
2018-12-19T11:49:53.562Z,63.90
2018-12-19T11:52:21.130Z,64.40
2018-12-19T11:54:49.155Z,64.10
2018-12-19T11:57:17.150Z,63.90
2018-12-19T11:59:45.231Z,63.50
2018-12-19T12:02:13.279Z,63.50
2018-12-19T12:04:40.746Z,63.70
2018-12-19T12:07:08.761Z,62.90
2018-12-19T12:09:36.387Z,62.70
2018-12-19T12:12:04.021Z,62.50
2018-12-19T12:14:32.633Z,62.80
2018-12-19T12:17:00.770Z,62.70
2018-12-19T12:19:29.204Z,62.20
2018-12-19T12:21:56.672Z,62.50
2018-12-19T12:24:24.154Z,63.20
2018-12-19T12:26:52.153Z,63.50
2018-12-19T12:29:20.148Z,63.90
2018-12-19T12:31:49.247Z,64.10
2018-12-19T12:34:17.461Z,64.30
2018-12-19T12:36:44.929Z,64.60
2018-12-19T12:39:12.383Z,65.30
2018-12-19T12:41:40.244Z,64.70
2018-12-19T12:44:07.735Z,64.70
2018-12-19T12:46:35.512Z,64.70
2018-12-19T12:49:04.483Z,64.90
2018-12-19T12:51:32.635Z,65.10
2018-12-19T12:54:00.628Z,64.80
2018-12-19T12:56:28.774Z,65.40
2018-12-19T12:58:57.126Z,65.40
2018-12-19T13:01:24.589Z,65.50
2018-12-19T13:03:52.040Z,65.30
2018-12-19T13:06:19.698Z,65.00
2018-12-19T13:08:47.170Z,65.60
2018-12-19T13:11:14.873Z,66.00
2018-12-19T13:13:43.001Z,66.00
2018-12-19T13:16:11.073Z,65.80
2018-12-19T13:18:38.554Z,65.70
2018-12-19T13:21:06.506Z,65.60
2018-12-19T13:23:34.791Z,65.30
2018-12-19T13:26:02.258Z,66.00
2018-12-19T13:28:30.530Z,65.80
2018-12-19T13:30:57.993Z,65.70
2018-12-19T13:33:26.276Z,65.20
2018-12-19T13:35:53.782Z,65.40
2018-12-19T13:38:21.266Z,64.90
2018-12-19T13:40:48.774Z,65.10
2018-12-19T13:43:16.357Z,65.40
2018-12-19T13:45:44.395Z,65.80
2018-12-19T13:48:12.586Z,65.90
2018-12-19T13:50:40.763Z,66.70
2018-12-19T13:53:08.257Z,66.10
2018-12-19T13:55:35.740Z,66.30
2018-12-19T13:58:07.014Z,65.70
2018-12-19T14:00:33.212Z,66.00
2018-12-19T14:03:01.401Z,66.10
2018-12-19T14:05:29.590Z,66.30
2018-12-19T14:07:57.786Z,66.10
2018-12-19T14:10:25.268Z,66.30
2018-12-19T14:12:54.582Z,66.10
2018-12-19T14:15:22.949Z,66.10
2018-12-19T14:17:50.618Z,65.70
2018-12-19T14:20:18.601Z,65.80
2018-12-19T14:22:46.516Z,66.20
2018-12-19T14:25:13.985Z,66.50
2018-12-19T14:27:42.065Z,66.20
2018-12-19T14:30:09.994Z,66.50
2018-12-19T14:32:37.473Z,67.00
2018-12-19T14:35:05.592Z,67.10
2018-12-19T14:37:33.297Z,67.30
2018-12-19T14:40:00.777Z,67.50
2018-12-19T14:42:29.540Z,67.70
2018-12-19T14:44:57.027Z,67.60
2018-12-19T14:47:25.041Z,67.80
2018-12-19T14:49:52.522Z,67.90
2018-12-19T14:52:20.089Z,68.00
2018-12-19T14:54:48.498Z,68.20
2018-12-19T14:57:16.647Z,68.40
2018-12-19T14:59:44.220Z,68.30
2018-12-19T15:02:12.386Z,68.20
2018-12-19T15:04:40.027Z,68.30
2018-12-19T15:07:07.489Z,68.20
2018-12-19T15:09:35.209Z,67.90
2018-12-19T15:12:02.812Z,68.10
2018-12-19T15:14:30.961Z,68.30
2018-12-19T15:16:59.305Z,68.30
2018-12-19T15:19:27.369Z,68.50
2018-12-19T15:21:54.847Z,68.50
2018-12-19T15:24:22.439Z,68.70
2018-12-19T15:26:51.005Z,68.80
2018-12-19T15:29:19.104Z,69.10
2018-12-19T15:31:46.564Z,69.10
2018-12-19T15:34:14.068Z,69.60
2018-12-19T15:36:41.577Z,69.60
2018-12-19T15:39:09.668Z,69.50
2018-12-19T15:41:37.161Z,69.90
2018-12-19T15:44:05.269Z,70.20
2018-12-19T15:46:33.962Z,70.10
2018-12-19T15:49:02.177Z,70.00
2018-12-19T15:51:29.881Z,70.00
2018-12-19T15:53:57.402Z,70.20
2018-12-19T15:56:25.569Z,70.10
2018-12-19T15:58:53.087Z,70.10
2018-12-19T16:01:20.741Z,70.10
2018-12-19T16:03:48.258Z,70.30
2018-12-19T16:06:15.750Z,70.50
2018-12-19T16:08:43.227Z,70.50
2018-12-19T16:11:10.878Z,70.90
2018-12-19T16:13:39.809Z,70.90
2018-12-19T16:16:07.667Z,71.00
2018-12-19T16:18:35.139Z,70.80
2018-12-19T16:21:03.182Z,70.90
2018-12-19T16:23:30.638Z,71.10
2018-12-19T16:25:58.830Z,71.20
2018-12-19T16:28:27.412Z,71.00
2018-12-19T16:30:54.975Z,71.10
2018-12-19T16:33:23.612Z,71.30
2018-12-19T16:35:52.154Z,71.30
2018-12-19T16:38:19.647Z,70.90
2018-12-19T16:40:47.210Z,71.10
2018-12-19T16:43:15.143Z,71.10
2018-12-19T16:45:42.729Z,70.70
2018-12-19T16:48:11.304Z,70.80
2018-12-19T16:50:38.794Z,70.80
2018-12-19T16:53:06.274Z,70.90
2018-12-19T16:55:34.406Z,71.00
2018-12-19T16:58:02.050Z,70.90
2018-12-19T17:00:29.574Z,71.20
2018-12-19T17:02:57.306Z,71.20
2018-12-19T17:05:24.796Z,71.10
2018-12-19T17:07:52.463Z,71.20
2018-12-19T17:10:20.002Z,71.10
2018-12-19T17:12:52.754Z,71.30
2018-12-19T17:15:20.778Z,71.10
2018-12-19T17:17:48.255Z,71.20
2018-12-19T17:20:16.400Z,71.20
2018-12-19T17:22:44.472Z,71.30
2018-12-19T17:25:12.010Z,71.60
2018-12-19T17:27:40.060Z,71.70
2018-12-19T17:30:08.506Z,71.20
2018-12-19T17:32:36.305Z,71.60
2018-12-19T17:35:04.786Z,71.70
2018-12-19T17:37:32.287Z,73.00
2018-12-19T17:40:00.500Z,72.80
2018-12-19T17:42:28.042Z,71.90
2018-12-19T17:44:55.647Z,72.60
2018-12-19T17:47:24.107Z,72.70
2018-12-19T17:49:52.124Z,73.50
2018-12-19T17:52:19.577Z,74.10
2018-12-19T17:54:47.495Z,73.30
2018-12-19T17:57:15.601Z,74.30
2018-12-19T17:59:43.313Z,73.30
2018-12-19T18:02:11.006Z,73.80
2018-12-19T18:04:38.677Z,74.10
2018-12-19T18:07:06.289Z,73.80
2018-12-19T18:09:33.804Z,74.20
2018-12-19T18:12:02.517Z,74.30
2018-12-19T18:14:31.105Z,73.80
2018-12-19T18:16:59.077Z,74.70
2018-12-19T18:19:27.033Z,74.40
2018-12-19T18:21:54.898Z,75.50
2018-12-19T18:24:22.487Z,74.60
2018-12-19T18:26:50.607Z,74.30
2018-12-19T18:29:18.745Z,74.60
2018-12-19T18:31:46.925Z,75.20
2018-12-19T18:34:14.393Z,75.60
2018-12-19T18:36:42.625Z,75.50
2018-12-19T18:39:10.644Z,75.70
2018-12-19T18:41:38.140Z,74.70
2018-12-19T18:44:05.754Z,76.10
2018-12-19T18:46:33.256Z,77.00
2018-12-19T18:49:01.293Z,75.50
2018-12-19T18:51:29.000Z,77.10
2018-12-19T18:53:56.486Z,77.10
2018-12-19T18:56:25.034Z,76.90
2018-12-19T18:58:52.519Z,76.40
2018-12-19T19:01:21.152Z,76.40
2018-12-19T19:03:50.389Z,76.70
2018-12-19T19:06:18.196Z,77.40
2018-12-19T19:08:46.806Z,77.90
2018-12-19T19:11:14.467Z,77.10
2018-12-19T19:13:42.598Z,77.30
2018-12-19T19:16:10.940Z,77.30
2018-12-19T19:18:39.075Z,77.40
2018-12-19T19:21:07.155Z,77.50
2018-12-19T19:23:34.683Z,77.10
2018-12-19T19:26:02.875Z,77.60
2018-12-19T19:28:32.558Z,78.70
2018-12-19T19:31:01.066Z,78.40
2018-12-19T19:33:29.221Z,78.30
2018-12-19T19:35:58.237Z,77.50
2018-12-19T19:38:27.535Z,78.20
2018-12-19T19:40:55.245Z,78.30
2018-12-19T19:43:26.531Z,79.00
2018-12-19T19:45:53.106Z,78.80
2018-12-19T19:48:21.000Z,78.30
2018-12-19T19:50:48.579Z,79.30
2018-12-19T19:53:17.356Z,78.50
2018-12-19T19:55:46.188Z,78.50
2018-12-19T19:58:14.126Z,78.00
2018-12-19T20:00:42.104Z,78.50
2018-12-19T20:03:10.481Z,78.10
2018-12-19T20:05:38.737Z,78.50
2018-12-19T20:08:06.681Z,78.30
2018-12-19T20:10:34.408Z,78.70
2018-12-19T20:13:03.541Z,78.70
2018-12-19T20:15:32.193Z,78.90
2018-12-19T20:18:00.722Z,79.10
2018-12-19T20:20:29.111Z,79.20
2018-12-19T20:22:58.562Z,78.60
2018-12-19T20:25:27.229Z,78.80
2018-12-19T20:27:55.543Z,78.50
2018-12-19T20:30:24.615Z,78.70
2018-12-19T20:32:52.716Z,78.60
2018-12-19T20:35:20.282Z,78.40
2018-12-19T20:37:48.788Z,78.60
2018-12-19T20:40:17.113Z,78.60
2018-12-19T20:42:45.669Z,78.70
2018-12-19T20:45:13.499Z,78.40
2018-12-19T20:47:42.308Z,78.40
2018-12-19T20:50:10.405Z,78.30
2018-12-19T20:52:38.453Z,78.20
2018-12-19T20:55:07.152Z,78.10
2018-12-19T20:57:35.514Z,78.10
2018-12-19T21:00:04.364Z,78.20
2018-12-19T21:02:32.803Z,78.40
2018-12-19T21:05:01.606Z,78.30
2018-12-19T21:07:29.734Z,78.40
2018-12-19T21:09:57.459Z,78.40
2018-12-19T21:12:26.740Z,78.10
2018-12-19T21:14:55.888Z,78.00
2018-12-19T21:17:31.422Z,78.00
2018-12-19T21:19:59.985Z,77.80
2018-12-19T21:22:28.459Z,77.70
2018-12-19T21:24:56.365Z,77.90
2018-12-19T21:27:25.235Z,77.70
2018-12-19T21:29:53.420Z,77.80
2018-12-19T21:32:20.902Z,77.70
2018-12-19T21:34:49.271Z,77.60
2018-12-19T21:37:17.744Z,77.50
2018-12-19T21:39:45.780Z,77.60
2018-12-19T21:42:13.995Z,77.30
2018-12-19T21:44:42.175Z,77.50
2018-12-19T21:47:10.526Z,77.00
2018-12-19T21:49:39.007Z,77.10
2018-12-19T21:52:06.916Z,77.30
2018-12-19T21:54:35.300Z,76.80
2018-12-19T21:57:04.175Z,77.00
2018-12-19T21:59:32.010Z,76.50
2018-12-19T22:02:00.834Z,76.30
2018-12-19T22:04:28.830Z,76.00
2018-12-19T22:06:57.078Z,76.30
2018-12-19T22:09:26.028Z,76.20
2018-12-19T22:11:55.751Z,76.10
2018-12-19T22:14:23.979Z,75.90
2018-12-19T22:16:58.831Z,75.60
2018-12-19T22:19:27.054Z,75.80
2018-12-19T22:21:54.674Z,75.40
2018-12-19T22:24:22.379Z,75.20
2018-12-19T22:26:51.094Z,75.40
2018-12-19T22:29:19.116Z,75.80
2018-12-19T22:31:47.200Z,75.30
2018-12-19T22:34:15.453Z,75.30
2018-12-19T22:36:43.081Z,75.10
2018-12-19T22:39:15.772Z,75.20
2018-12-19T22:41:43.448Z,75.00
2018-12-19T22:44:11.712Z,74.40
2018-12-19T22:46:39.251Z,74.30
2018-12-19T22:49:08.092Z,74.50
2018-12-19T22:51:35.813Z,74.50
2018-12-19T22:54:03.650Z,74.60
2018-12-19T22:56:32.026Z,74.50
2018-12-19T22:59:00.059Z,74.80
2018-12-19T23:01:33.395Z,74.30
2018-12-19T23:04:06.076Z,73.90
2018-12-19T23:06:34.808Z,74.10
2018-12-19T23:09:05.482Z,74.20
2018-12-19T23:11:34.196Z,74.50
2018-12-19T23:14:03.831Z,74.50
2018-12-19T23:16:32.452Z,74.50
2018-12-19T23:19:00.268Z,74.90
2018-12-19T23:21:28.553Z,74.90
2018-12-19T23:23:56.177Z,75.00
2018-12-19T23:26:25.953Z,75.20
2018-12-19T23:29:00.706Z,75.20
2018-12-19T23:31:29.159Z,75.30
2018-12-19T23:33:56.720Z,75.40
2018-12-19T23:36:24.276Z,75.70
2018-12-19T23:38:52.533Z,75.60
2018-12-19T23:41:20.722Z,75.80
2018-12-19T23:43:48.251Z,75.80
2018-12-19T23:46:15.892Z,75.90
2018-12-19T23:48:44.012Z,75.90
2018-12-19T23:51:11.735Z,76.00
2018-12-19T23:53:39.330Z,75.90
2018-12-19T23:56:07.653Z,75.60
2018-12-19T23:58:35.922Z,75.70
